sensor_id;sensor_type;location;lat;lon;timestamp;P1;durP1;ratioP1;P2;durP2;ratioP2
18042;SDS011;9146;48.074;11.968;2022-12-18T00:00:59;48.27;;;23.47;;
18042;SDS011;9146;48.074;11.968;2022-12-18T00:03:30;55.03;;;21.73;;
18042;SDS011;9146;48.074;11.968;2022-12-18T00:05:58;53.07;;;20.80;;
18042;SDS011;9146;48.074;11.968;2022-12-18T00:08:25;51.80;;;22.53;;
18042;SDS011;9146;48.074;11.968;2022-12-18T00:10:52;62.67;;;26.20;;
18042;SDS011;9146;48.074;11.968;2022-12-18T00:13:20;51.73;;;22.03;;
18042;SDS011;9146;48.074;11.968;2022-12-18T00:15:47;49.53;;;22.00;;
18042;SDS011;9146;48.074;11.968;2022-12-18T00:18:14;52.50;;;22.93;;
18042;SDS011;9146;48.074;11.968;2022-12-18T00:20:41;49.30;;;22.57;;
18042;SDS011;9146;48.074;11.968;2022-12-18T00:23:08;64.83;;;28.07;;
18042;SDS011;9146;48.074;11.968;2022-12-18T00:25:36;66.20;;;26.23;;
18042;SDS011;9146;48.074;11.968;2022-12-18T00:28:03;50.43;;;21.17;;
18042;SDS011;9146;48.074;11.968;2022-12-18T00:30:31;44.70;;;21.13;;
18042;SDS011;9146;48.074;11.968;2022-12-18T00:32:59;44.07;;;22.50;;
18042;SDS011;9146;48.074;11.968;2022-12-18T00:35:26;56.83;;;23.73;;
18042;SDS011;9146;48.074;11.968;2022-12-18T00:37:52;51.13;;;24.70;;
18042;SDS011;9146;48.074;11.968;2022-12-18T00:40:19;56.37;;;22.93;;
18042;SDS011;9146;48.074;11.968;2022-12-18T00:42:46;57.40;;;20.90;;
18042;SDS011;9146;48.074;11.968;2022-12-18T00:45:25;55.20;;;25.50;;
18042;SDS011;9146;48.074;11.968;2022-12-18T00:47:54;49.40;;;22.70;;
18042;SDS011;9146;48.074;11.968;2022-12-18T00:50:23;59.37;;;22.50;;
18042;SDS011;9146;48.074;11.968;2022-12-18T00:52:51;45.67;;;21.77;;
18042;SDS011;9146;48.074;11.968;2022-12-18T00:55:18;54.80;;;25.40;;
18042;SDS011;9146;48.074;11.968;2022-12-18T00:57:44;53.67;;;21.23;;
18042;SDS011;9146;48.074;11.968;2022-12-18T01:00:12;47.70;;;24.93;;
18042;SDS011;9146;48.074;11.968;2022-12-18T01:02:41;45.03;;;21.77;;
18042;SDS011;9146;48.074;11.968;2022-12-18T01:05:10;49.43;;;23.93;;
18042;SDS011;9146;48.074;11.968;2022-12-18T01:07:38;46.50;;;20.07;;
18042;SDS011;9146;48.074;11.968;2022-12-18T01:10:05;86.00;;;28.63;;
18042;SDS011;9146;48.074;11.968;2022-12-18T01:12:34;52.13;;;21.20;;
18042;SDS011;9146;48.074;11.968;2022-12-18T01:15:02;40.93;;;20.67;;
18042;SDS011;9146;48.074;11.968;2022-12-18T01:17:29;60.57;;;25.30;;
18042;SDS011;9146;48.074;11.968;2022-12-18T01:19:56;49.03;;;22.20;;
18042;SDS011;9146;48.074;11.968;2022-12-18T01:22:26;62.38;;;27.05;;
18042;SDS011;9146;48.074;11.968;2022-12-18T01:24:53;57.67;;;26.53;;
18042;SDS011;9146;48.074;11.968;2022-12-18T01:27:20;45.57;;;23.23;;
18042;SDS011;9146;48.074;11.968;2022-12-18T01:29:46;48.77;;;21.33;;
18042;SDS011;9146;48.074;11.968;2022-12-18T01:32:15;45.33;;;19.57;;
18042;SDS011;9146;48.074;11.968;2022-12-18T01:34:41;51.93;;;23.67;;
18042;SDS011;9146;48.074;11.968;2022-12-18T01:37:09;70.20;;;24.30;;
18042;SDS011;9146;48.074;11.968;2022-12-18T01:39:38;57.30;;;23.70;;
18042;SDS011;9146;48.074;11.968;2022-12-18T01:42:08;53.50;;;22.43;;
18042;SDS011;9146;48.074;11.968;2022-12-18T01:44:56;40.80;;;19.93;;
18042;SDS011;9146;48.074;11.968;2022-12-18T01:50:14;44.30;;;19.63;;
18042;SDS011;9146;48.074;11.968;2022-12-18T01:52:43;42.00;;;21.47;;
18042;SDS011;9146;48.074;11.968;2022-12-18T01:55:14;36.97;;;17.53;;
18042;SDS011;9146;48.074;11.968;2022-12-18T01:57:44;34.17;;;15.87;;
18042;SDS011;9146;48.074;11.968;2022-12-18T02:00:12;41.93;;;19.67;;
18042;SDS011;9146;48.074;11.968;2022-12-18T02:02:41;53.93;;;20.20;;
18042;SDS011;9146;48.074;11.968;2022-12-18T02:05:10;36.33;;;18.17;;
18042;SDS011;9146;48.074;11.968;2022-12-18T02:07:42;42.23;;;19.87;;
18042;SDS011;9146;48.074;11.968;2022-12-18T02:10:20;37.20;;;17.07;;
18042;SDS011;9146;48.074;11.968;2022-12-18T02:12:55;36.27;;;17.50;;
18042;SDS011;9146;48.074;11.968;2022-12-18T02:15:30;49.93;;;20.23;;
18042;SDS011;9146;48.074;11.968;2022-12-18T02:18:03;40.80;;;20.67;;
18042;SDS011;9146;48.074;11.968;2022-12-18T02:20:35;44.97;;;18.57;;
18042;SDS011;9146;48.074;11.968;2022-12-18T02:23:07;43.80;;;19.53;;
18042;SDS011;9146;48.074;11.968;2022-12-18T02:25:53;45.53;;;19.80;;
18042;SDS011;9146;48.074;11.968;2022-12-18T02:28:33;38.80;;;19.53;;
18042;SDS011;9146;48.074;11.968;2022-12-18T02:31:06;45.70;;;17.30;;
18042;SDS011;9146;48.074;11.968;2022-12-18T02:33:37;38.23;;;18.50;;
18042;SDS011;9146;48.074;11.968;2022-12-18T02:36:06;41.33;;;17.80;;
18042;SDS011;9146;48.074;11.968;2022-12-18T02:38:35;38.20;;;17.50;;
18042;SDS011;9146;48.074;11.968;2022-12-18T02:41:04;32.97;;;18.20;;
18042;SDS011;9146;48.074;11.968;2022-12-18T02:43:32;41.17;;;19.47;;
18042;SDS011;9146;48.074;11.968;2022-12-18T02:46:00;45.40;;;20.67;;
18042;SDS011;9146;48.074;11.968;2022-12-18T02:48:43;39.97;;;20.10;;
18042;SDS011;9146;48.074;11.968;2022-12-18T02:51:11;40.73;;;19.27;;
18042;SDS011;9146;48.074;11.968;2022-12-18T02:53:48;52.17;;;22.00;;
18042;SDS011;9146;48.074;11.968;2022-12-18T02:56:21;48.47;;;23.10;;
18042;SDS011;9146;48.074;11.968;2022-12-18T02:58:55;45.13;;;20.60;;
18042;SDS011;9146;48.074;11.968;2022-12-18T03:01:28;42.53;;;19.40;;
18042;SDS011;9146;48.074;11.968;2022-12-18T03:04:04;37.43;;;18.30;;
18042;SDS011;9146;48.074;11.968;2022-12-18T03:06:37;46.45;;;23.70;;
18042;SDS011;9146;48.074;11.968;2022-12-18T03:09:08;43.13;;;22.20;;
18042;SDS011;9146;48.074;11.968;2022-12-18T03:11:40;42.80;;;19.87;;
18042;SDS011;9146;48.074;11.968;2022-12-18T03:14:29;42.17;;;20.90;;
18042;SDS011;9146;48.074;11.968;2022-12-18T03:17:01;49.87;;;21.03;;
18042;SDS011;9146;48.074;11.968;2022-12-18T03:19:31;46.17;;;19.67;;
18042;SDS011;9146;48.074;11.968;2022-12-18T03:22:00;39.07;;;18.67;;
18042;SDS011;9146;48.074;11.968;2022-12-18T03:24:29;44.50;;;20.83;;
18042;SDS011;9146;48.074;11.968;2022-12-18T03:27:01;39.03;;;17.33;;
18042;SDS011;9146;48.074;11.968;2022-12-18T03:29:32;39.70;;;18.97;;
18042;SDS011;9146;48.074;11.968;2022-12-18T03:32:03;38.30;;;19.17;;
18042;SDS011;9146;48.074;11.968;2022-12-18T03:34:36;58.40;;;21.93;;
18042;SDS011;9146;48.074;11.968;2022-12-18T03:37:06;36.73;;;19.13;;
18042;SDS011;9146;48.074;11.968;2022-12-18T03:39:33;42.90;;;19.63;;
18042;SDS011;9146;48.074;11.968;2022-12-18T03:42:04;44.00;;;21.33;;
18042;SDS011;9146;48.074;11.968;2022-12-18T03:44:35;54.40;;;23.57;;
18042;SDS011;9146;48.074;11.968;2022-12-18T03:47:08;44.20;;;20.27;;
18042;SDS011;9146;48.074;11.968;2022-12-18T03:49:38;38.13;;;19.47;;
18042;SDS011;9146;48.074;11.968;2022-12-18T03:52:13;43.20;;;19.43;;
18042;SDS011;9146;48.074;11.968;2022-12-18T03:54:46;48.07;;;20.87;;
18042;SDS011;9146;48.074;11.968;2022-12-18T03:57:16;40.13;;;18.03;;
18042;SDS011;9146;48.074;11.968;2022-12-18T03:59:45;40.57;;;19.23;;
18042;SDS011;9146;48.074;11.968;2022-12-18T04:02:16;41.77;;;20.23;;
18042;SDS011;9146;48.074;11.968;2022-12-18T04:04:44;39.97;;;18.43;;
18042;SDS011;9146;48.074;11.968;2022-12-18T04:07:12;33.03;;;17.60;;
18042;SDS011;9146;48.074;11.968;2022-12-18T04:09:40;49.97;;;19.03;;
18042;SDS011;9146;48.074;11.968;2022-12-18T04:12:09;39.93;;;19.73;;
18042;SDS011;9146;48.074;11.968;2022-12-18T04:14:38;42.73;;;18.63;;
18042;SDS011;9146;48.074;11.968;2022-12-18T04:17:05;33.77;;;17.07;;
18042;SDS011;9146;48.074;11.968;2022-12-18T04:19:32;36.97;;;18.10;;
18042;SDS011;9146;48.074;11.968;2022-12-18T04:21:59;29.87;;;15.47;;
18042;SDS011;9146;48.074;11.968;2022-12-18T04:24:26;42.30;;;18.30;;
18042;SDS011;9146;48.074;11.968;2022-12-18T04:26:53;30.30;;;16.53;;
18042;SDS011;9146;48.074;11.968;2022-12-18T04:29:20;41.33;;;18.87;;
18042;SDS011;9146;48.074;11.968;2022-12-18T04:31:48;38.40;;;17.00;;
18042;SDS011;9146;48.074;11.968;2022-12-18T04:34:15;36.90;;;18.87;;
18042;SDS011;9146;48.074;11.968;2022-12-18T04:36:42;35.37;;;16.87;;
18042;SDS011;9146;48.074;11.968;2022-12-18T04:39:09;45.77;;;18.70;;
18042;SDS011;9146;48.074;11.968;2022-12-18T04:41:36;38.00;;;16.20;;
18042;SDS011;9146;48.074;11.968;2022-12-18T04:44:03;40.47;;;17.47;;
18042;SDS011;9146;48.074;11.968;2022-12-18T04:46:30;43.50;;;18.70;;
18042;SDS011;9146;48.074;11.968;2022-12-18T04:48:59;33.13;;;17.53;;
18042;SDS011;9146;48.074;11.968;2022-12-18T04:51:25;36.90;;;18.23;;
18042;SDS011;9146;48.074;11.968;2022-12-18T04:53:52;42.37;;;19.20;;
18042;SDS011;9146;48.074;11.968;2022-12-18T04:56:20;38.67;;;19.33;;
18042;SDS011;9146;48.074;11.968;2022-12-18T04:58:47;38.43;;;17.70;;
18042;SDS011;9146;48.074;11.968;2022-12-18T05:01:15;29.93;;;15.17;;
18042;SDS011;9146;48.074;11.968;2022-12-18T05:03:43;35.47;;;18.10;;
18042;SDS011;9146;48.074;11.968;2022-12-18T05:06:12;32.53;;;17.80;;
18042;SDS011;9146;48.074;11.968;2022-12-18T05:08:39;30.57;;;15.27;;
18042;SDS011;9146;48.074;11.968;2022-12-18T05:11:06;39.83;;;17.37;;
18042;SDS011;9146;48.074;11.968;2022-12-18T05:13:35;35.70;;;16.83;;
18042;SDS011;9146;48.074;11.968;2022-12-18T05:16:03;31.63;;;16.90;;
18042;SDS011;9146;48.074;11.968;2022-12-18T05:18:31;29.47;;;15.20;;
18042;SDS011;9146;48.074;11.968;2022-12-18T05:20:58;39.50;;;18.57;;
18042;SDS011;9146;48.074;11.968;2022-12-18T05:23:27;32.47;;;17.17;;
18042;SDS011;9146;48.074;11.968;2022-12-18T05:25:54;36.03;;;18.00;;
18042;SDS011;9146;48.074;11.968;2022-12-18T05:28:23;36.00;;;16.53;;
18042;SDS011;9146;48.074;11.968;2022-12-18T05:30:51;33.07;;;16.17;;
18042;SDS011;9146;48.074;11.968;2022-12-18T05:33:20;25.60;;;13.77;;
18042;SDS011;9146;48.074;11.968;2022-12-18T05:35:49;33.47;;;16.87;;
18042;SDS011;9146;48.074;11.968;2022-12-18T05:38:17;37.13;;;17.73;;
18042;SDS011;9146;48.074;11.968;2022-12-18T05:40:46;28.00;;;13.67;;
18042;SDS011;9146;48.074;11.968;2022-12-18T05:43:13;34.60;;;15.47;;
18042;SDS011;9146;48.074;11.968;2022-12-18T05:45:40;35.40;;;15.67;;
18042;SDS011;9146;48.074;11.968;2022-12-18T05:48:08;29.37;;;14.50;;
18042;SDS011;9146;48.074;11.968;2022-12-18T05:50:39;30.27;;;16.07;;
18042;SDS011;9146;48.074;11.968;2022-12-18T05:53:08;28.37;;;14.50;;
18042;SDS011;9146;48.074;11.968;2022-12-18T05:55:36;24.33;;;12.90;;
18042;SDS011;9146;48.074;11.968;2022-12-18T05:58:08;34.30;;;15.33;;
18042;SDS011;9146;48.074;11.968;2022-12-18T06:00:37;33.90;;;14.97;;
18042;SDS011;9146;48.074;11.968;2022-12-18T06:03:05;33.87;;;15.20;;
18042;SDS011;9146;48.074;11.968;2022-12-18T06:05:34;41.50;;;16.73;;
18042;SDS011;9146;48.074;11.968;2022-12-18T06:08:02;28.83;;;14.70;;
18042;SDS011;9146;48.074;11.968;2022-12-18T06:10:29;30.80;;;15.40;;
18042;SDS011;9146;48.074;11.968;2022-12-18T06:12:56;29.17;;;14.23;;
18042;SDS011;9146;48.074;11.968;2022-12-18T06:15:26;24.87;;;13.57;;
18042;SDS011;9146;48.074;11.968;2022-12-18T06:17:54;38.17;;;12.73;;
18042;SDS011;9146;48.074;11.968;2022-12-18T06:20:21;32.00;;;13.93;;
18042;SDS011;9146;48.074;11.968;2022-12-18T06:22:48;27.53;;;14.07;;
18042;SDS011;9146;48.074;11.968;2022-12-18T06:25:15;24.30;;;13.00;;
18042;SDS011;9146;48.074;11.968;2022-12-18T06:27:43;30.80;;;14.73;;
18042;SDS011;9146;48.074;11.968;2022-12-18T06:30:10;31.10;;;16.10;;
18042;SDS011;9146;48.074;11.968;2022-12-18T06:32:39;30.97;;;15.13;;
18042;SDS011;9146;48.074;11.968;2022-12-18T06:35:06;27.37;;;13.90;;
18042;SDS011;9146;48.074;11.968;2022-12-18T06:37:34;32.30;;;13.90;;
18042;SDS011;9146;48.074;11.968;2022-12-18T06:40:01;34.87;;;14.40;;
18042;SDS011;9146;48.074;11.968;2022-12-18T06:42:28;28.10;;;12.67;;
18042;SDS011;9146;48.074;11.968;2022-12-18T06:44:55;25.63;;;13.33;;
18042;SDS011;9146;48.074;11.968;2022-12-18T06:47:23;27.53;;;13.90;;
18042;SDS011;9146;48.074;11.968;2022-12-18T06:49:52;26.40;;;13.30;;
18042;SDS011;9146;48.074;11.968;2022-12-18T06:52:19;27.97;;;12.57;;
18042;SDS011;9146;48.074;11.968;2022-12-18T06:54:46;31.13;;;15.10;;
18042;SDS011;9146;48.074;11.968;2022-12-18T06:57:13;30.80;;;13.37;;
18042;SDS011;9146;48.074;11.968;2022-12-18T06:59:40;30.03;;;13.70;;
18042;SDS011;9146;48.074;11.968;2022-12-18T07:02:10;28.63;;;14.20;;
18042;SDS011;9146;48.074;11.968;2022-12-18T07:04:37;32.47;;;15.57;;
18042;SDS011;9146;48.074;11.968;2022-12-18T07:07:06;31.53;;;15.97;;
18042;SDS011;9146;48.074;11.968;2022-12-18T07:09:33;32.63;;;14.10;;
18042;SDS011;9146;48.074;11.968;2022-12-18T07:12:00;26.93;;;15.00;;
18042;SDS011;9146;48.074;11.968;2022-12-18T07:14:27;35.83;;;15.23;;
18042;SDS011;9146;48.074;11.968;2022-12-18T07:16:54;27.47;;;14.20;;
18042;SDS011;9146;48.074;11.968;2022-12-18T07:19:21;32.83;;;14.70;;
18042;SDS011;9146;48.074;11.968;2022-12-18T07:21:50;26.00;;;13.00;;
18042;SDS011;9146;48.074;11.968;2022-12-18T07:24:19;24.87;;;13.60;;
18042;SDS011;9146;48.074;11.968;2022-12-18T07:26:46;33.77;;;15.63;;
18042;SDS011;9146;48.074;11.968;2022-12-18T07:29:13;28.67;;;14.03;;
18042;SDS011;9146;48.074;11.968;2022-12-18T07:31:40;26.00;;;14.03;;
18042;SDS011;9146;48.074;11.968;2022-12-18T07:34:09;27.77;;;12.80;;
18042;SDS011;9146;48.074;11.968;2022-12-18T07:36:36;28.27;;;14.70;;
18042;SDS011;9146;48.074;11.968;2022-12-18T07:39:03;30.50;;;14.23;;
18042;SDS011;9146;48.074;11.968;2022-12-18T07:41:32;25.40;;;11.80;;
18042;SDS011;9146;48.074;11.968;2022-12-18T07:43:59;32.03;;;14.90;;
18042;SDS011;9146;48.074;11.968;2022-12-18T07:46:26;30.33;;;14.93;;
18042;SDS011;9146;48.074;11.968;2022-12-18T07:48:53;24.70;;;13.83;;
18042;SDS011;9146;48.074;11.968;2022-12-18T07:51:20;27.53;;;13.00;;
18042;SDS011;9146;48.074;11.968;2022-12-18T07:53:47;30.10;;;14.80;;
18042;SDS011;9146;48.074;11.968;2022-12-18T07:56:14;31.37;;;14.17;;
18042;SDS011;9146;48.074;11.968;2022-12-18T07:58:42;28.33;;;14.00;;
18042;SDS011;9146;48.074;11.968;2022-12-18T08:01:15;31.57;;;14.50;;
18042;SDS011;9146;48.074;11.968;2022-12-18T08:03:42;36.80;;;15.07;;
18042;SDS011;9146;48.074;11.968;2022-12-18T08:06:09;28.43;;;13.47;;
18042;SDS011;9146;48.074;11.968;2022-12-18T08:08:36;38.63;;;13.07;;
18042;SDS011;9146;48.074;11.968;2022-12-18T08:11:05;25.63;;;12.47;;
18042;SDS011;9146;48.074;11.968;2022-12-18T08:13:32;23.10;;;10.90;;
18042;SDS011;9146;48.074;11.968;2022-12-18T08:16:01;36.10;;;11.90;;
18042;SDS011;9146;48.074;11.968;2022-12-18T08:18:29;30.47;;;13.20;;
18042;SDS011;9146;48.074;11.968;2022-12-18T08:21:07;22.67;;;12.50;;
18042;SDS011;9146;48.074;11.968;2022-12-18T08:23:35;25.80;;;14.20;;
18042;SDS011;9146;48.074;11.968;2022-12-18T08:26:04;28.60;;;13.70;;
18042;SDS011;9146;48.074;11.968;2022-12-18T08:28:31;22.50;;;11.63;;
18042;SDS011;9146;48.074;11.968;2022-12-18T08:30:58;34.67;;;14.77;;
18042;SDS011;9146;48.074;11.968;2022-12-18T08:33:27;27.63;;;13.53;;
18042;SDS011;9146;48.074;11.968;2022-12-18T08:35:53;37.10;;;15.27;;
18042;SDS011;9146;48.074;11.968;2022-12-18T08:38:21;26.00;;;13.50;;
18042;SDS011;9146;48.074;11.968;2022-12-18T08:40:48;25.40;;;12.40;;
18042;SDS011;9146;48.074;11.968;2022-12-18T08:43:15;24.80;;;12.93;;
18042;SDS011;9146;48.074;11.968;2022-12-18T08:45:59;23.57;;;13.67;;
18042;SDS011;9146;48.074;11.968;2022-12-18T08:48:27;21.37;;;12.17;;
18042;SDS011;9146;48.074;11.968;2022-12-18T08:50:54;21.90;;;12.20;;
18042;SDS011;9146;48.074;11.968;2022-12-18T08:53:21;29.20;;;14.17;;
18042;SDS011;9146;48.074;11.968;2022-12-18T08:55:51;22.87;;;12.10;;
18042;SDS011;9146;48.074;11.968;2022-12-18T08:58:18;27.37;;;13.90;;
18042;SDS011;9146;48.074;11.968;2022-12-18T09:00:45;28.80;;;12.70;;
18042;SDS011;9146;48.074;11.968;2022-12-18T09:03:12;22.63;;;13.17;;
18042;SDS011;9146;48.074;11.968;2022-12-18T09:05:41;27.97;;;12.37;;
18042;SDS011;9146;48.074;11.968;2022-12-18T09:08:08;25.47;;;13.43;;
18042;SDS011;9146;48.074;11.968;2022-12-18T09:10:40;24.43;;;12.43;;
18042;SDS011;9146;48.074;11.968;2022-12-18T09:13:09;24.13;;;12.87;;
18042;SDS011;9146;48.074;11.968;2022-12-18T09:15:39;23.17;;;12.03;;
18042;SDS011;9146;48.074;11.968;2022-12-18T09:18:07;28.63;;;12.50;;
18042;SDS011;9146;48.074;11.968;2022-12-18T09:20:34;25.27;;;13.03;;
18042;SDS011;9146;48.074;11.968;2022-12-18T09:23:03;25.97;;;14.40;;
18042;SDS011;9146;48.074;11.968;2022-12-18T09:25:30;28.63;;;12.10;;
18042;SDS011;9146;48.074;11.968;2022-12-18T09:27:58;23.50;;;12.23;;
18042;SDS011;9146;48.074;11.968;2022-12-18T09:30:25;22.70;;;13.30;;
18042;SDS011;9146;48.074;11.968;2022-12-18T09:32:53;23.83;;;13.17;;
18042;SDS011;9146;48.074;11.968;2022-12-18T09:35:20;23.97;;;13.07;;
18042;SDS011;9146;48.074;11.968;2022-12-18T09:37:47;21.80;;;12.40;;
18042;SDS011;9146;48.074;11.968;2022-12-18T09:40:16;27.50;;;12.60;;
18042;SDS011;9146;48.074;11.968;2022-12-18T09:42:47;30.97;;;13.53;;
18042;SDS011;9146;48.074;11.968;2022-12-18T09:45:17;30.70;;;14.63;;
18042;SDS011;9146;48.074;11.968;2022-12-18T09:47:44;30.27;;;15.10;;
18042;SDS011;9146;48.074;11.968;2022-12-18T09:50:16;28.27;;;14.03;;
18042;SDS011;9146;48.074;11.968;2022-12-18T09:52:50;27.30;;;13.00;;
18042;SDS011;9146;48.074;11.968;2022-12-18T09:55:24;30.03;;;13.17;;
18042;SDS011;9146;48.074;11.968;2022-12-18T09:57:55;24.20;;;12.73;;
18042;SDS011;9146;48.074;11.968;2022-12-18T10:00:27;30.57;;;14.20;;
18042;SDS011;9146;48.074;11.968;2022-12-18T10:02:56;24.07;;;12.90;;
18042;SDS011;9146;48.074;11.968;2022-12-18T10:05:29;31.87;;;12.97;;
18042;SDS011;9146;48.074;11.968;2022-12-18T10:08:05;24.70;;;13.03;;
18042;SDS011;9146;48.074;11.968;2022-12-18T10:10:40;27.57;;;12.93;;
18042;SDS011;9146;48.074;11.968;2022-12-18T10:13:15;23.57;;;13.20;;
18042;SDS011;9146;48.074;11.968;2022-12-18T10:16:03;27.77;;;15.23;;
18042;SDS011;9146;48.074;11.968;2022-12-18T10:18:50;28.70;;;13.90;;
18042;SDS011;9146;48.074;11.968;2022-12-18T10:21:32;24.10;;;12.90;;
18042;SDS011;9146;48.074;11.968;2022-12-18T10:24:11;26.80;;;12.90;;
18042;SDS011;9146;48.074;11.968;2022-12-18T10:26:45;28.70;;;13.50;;
18042;SDS011;9146;48.074;11.968;2022-12-18T10:29:14;28.37;;;14.60;;
18042;SDS011;9146;48.074;11.968;2022-12-18T10:31:42;24.07;;;13.30;;
18042;SDS011;9146;48.074;11.968;2022-12-18T10:34:09;34.23;;;13.77;;
18042;SDS011;9146;48.074;11.968;2022-12-18T10:36:41;22.77;;;12.70;;
18042;SDS011;9146;48.074;11.968;2022-12-18T10:39:16;25.27;;;13.43;;
18042;SDS011;9146;48.074;11.968;2022-12-18T10:41:46;28.33;;;14.70;;
18042;SDS011;9146;48.074;11.968;2022-12-18T10:44:17;27.13;;;14.70;;
18042;SDS011;9146;48.074;11.968;2022-12-18T10:46:46;26.77;;;11.87;;
18042;SDS011;9146;48.074;11.968;2022-12-18T10:49:18;23.53;;;13.20;;
18042;SDS011;9146;48.074;11.968;2022-12-18T10:51:48;24.67;;;13.17;;
18042;SDS011;9146;48.074;11.968;2022-12-18T10:54:17;23.53;;;13.73;;
18042;SDS011;9146;48.074;11.968;2022-12-18T10:56:49;25.53;;;12.10;;
18042;SDS011;9146;48.074;11.968;2022-12-18T10:59:17;27.83;;;14.37;;
18042;SDS011;9146;48.074;11.968;2022-12-18T11:01:45;22.07;;;11.97;;
18042;SDS011;9146;48.074;11.968;2022-12-18T11:04:16;22.30;;;15.80;;
18042;SDS011;9146;48.074;11.968;2022-12-18T11:06:55;23.43;;;13.60;;
18042;SDS011;9146;48.074;11.968;2022-12-18T11:09:27;22.30;;;12.80;;
18042;SDS011;9146;48.074;11.968;2022-12-18T11:11:58;25.73;;;12.20;;
18042;SDS011;9146;48.074;11.968;2022-12-18T11:14:27;21.50;;;11.50;;
18042;SDS011;9146;48.074;11.968;2022-12-18T11:16:55;20.83;;;11.50;;
18042;SDS011;9146;48.074;11.968;2022-12-18T11:19:27;22.77;;;12.57;;
18042;SDS011;9146;48.074;11.968;2022-12-18T11:21:58;25.20;;;12.40;;
18042;SDS011;9146;48.074;11.968;2022-12-18T11:24:29;29.33;;;13.57;;
18042;SDS011;9146;48.074;11.968;2022-12-18T11:27:01;21.77;;;11.97;;
18042;SDS011;9146;48.074;11.968;2022-12-18T11:29:34;22.47;;;13.43;;
18042;SDS011;9146;48.074;11.968;2022-12-18T11:35:03;21.43;;;12.37;;
18042;SDS011;9146;48.074;11.968;2022-12-18T11:37:38;26.90;;;12.27;;
18042;SDS011;9146;48.074;11.968;2022-12-18T11:40:10;19.80;;;11.10;;
18042;SDS011;9146;48.074;11.968;2022-12-18T11:42:44;23.67;;;13.27;;
18042;SDS011;9146;48.074;11.968;2022-12-18T11:45:20;30.40;;;15.03;;
18042;SDS011;9146;48.074;11.968;2022-12-18T11:47:55;24.20;;;12.90;;
18042;SDS011;9146;48.074;11.968;2022-12-18T11:50:28;23.73;;;14.03;;
18042;SDS011;9146;48.074;11.968;2022-12-18T11:52:58;21.50;;;12.53;;
18042;SDS011;9146;48.074;11.968;2022-12-18T11:55:28;28.27;;;15.40;;
18042;SDS011;9146;48.074;11.968;2022-12-18T11:58:07;33.40;;;16.13;;
18042;SDS011;9146;48.074;11.968;2022-12-18T12:00:42;25.87;;;15.10;;
18042;SDS011;9146;48.074;11.968;2022-12-18T12:06:12;29.40;;;16.47;;
18042;SDS011;9146;48.074;11.968;2022-12-18T12:08:51;28.60;;;15.73;;
18042;SDS011;9146;48.074;11.968;2022-12-18T12:11:27;29.37;;;14.60;;
18042;SDS011;9146;48.074;11.968;2022-12-18T12:14:06;36.40;;;17.40;;
18042;SDS011;9146;48.074;11.968;2022-12-18T12:16:53;25.70;;;14.53;;
18042;SDS011;9146;48.074;11.968;2022-12-18T12:19:32;27.80;;;15.57;;
18042;SDS011;9146;48.074;11.968;2022-12-18T12:22:07;23.40;;;14.23;;
18042;SDS011;9146;48.074;11.968;2022-12-18T12:24:44;23.27;;;13.20;;
18042;SDS011;9146;48.074;11.968;2022-12-18T12:27:24;22.50;;;12.87;;
18042;SDS011;9146;48.074;11.968;2022-12-18T12:30:00;21.73;;;14.50;;
18042;SDS011;9146;48.074;11.968;2022-12-18T12:32:38;28.50;;;15.97;;
18042;SDS011;9146;48.074;11.968;2022-12-18T12:35:28;25.40;;;14.87;;
18042;SDS011;9146;48.074;11.968;2022-12-18T12:38:02;25.80;;;13.97;;
18042;SDS011;9146;48.074;11.968;2022-12-18T12:40:34;27.03;;;14.43;;
18042;SDS011;9146;48.074;11.968;2022-12-18T12:43:07;24.93;;;13.77;;
18042;SDS011;9146;48.074;11.968;2022-12-18T12:45:48;27.80;;;15.57;;
18042;SDS011;9146;48.074;11.968;2022-12-18T12:48:22;24.53;;;14.70;;
18042;SDS011;9146;48.074;11.968;2022-12-18T12:50:58;23.90;;;13.10;;
18042;SDS011;9146;48.074;11.968;2022-12-18T12:53:28;25.60;;;14.33;;
18042;SDS011;9146;48.074;11.968;2022-12-18T12:55:59;29.67;;;13.93;;
18042;SDS011;9146;48.074;11.968;2022-12-18T12:58:29;28.37;;;15.40;;
18042;SDS011;9146;48.074;11.968;2022-12-18T13:01:08;27.87;;;14.87;;
18042;SDS011;9146;48.074;11.968;2022-12-18T13:03:43;27.13;;;14.77;;
18042;SDS011;9146;48.074;11.968;2022-12-18T13:06:19;30.97;;;16.30;;
18042;SDS011;9146;48.074;11.968;2022-12-18T13:08:56;27.97;;;15.73;;
18042;SDS011;9146;48.074;11.968;2022-12-18T13:11:29;30.10;;;16.00;;
18042;SDS011;9146;48.074;11.968;2022-12-18T13:14:23;28.13;;;14.77;;
18042;SDS011;9146;48.074;11.968;2022-12-18T13:22:40;30.27;;;13.83;;
18042;SDS011;9146;48.074;11.968;2022-12-18T13:25:28;27.40;;;14.37;;
18042;SDS011;9146;48.074;11.968;2022-12-18T13:28:02;21.20;;;13.20;;
18042;SDS011;9146;48.074;11.968;2022-12-18T13:30:43;23.67;;;13.40;;
18042;SDS011;9146;48.074;11.968;2022-12-18T13:36:25;26.57;;;13.80;;
18042;SDS011;9146;48.074;11.968;2022-12-18T13:39:10;23.23;;;13.50;;
18042;SDS011;9146;48.074;11.968;2022-12-18T13:48:15;28.90;;;14.23;;
18042;SDS011;9146;48.074;11.968;2022-12-18T13:50:49;26.43;;;14.23;;
18042;SDS011;9146;48.074;11.968;2022-12-18T13:53:24;26.30;;;13.60;;
18042;SDS011;9146;48.074;11.968;2022-12-18T13:55:54;24.00;;;13.30;;
18042;SDS011;9146;48.074;11.968;2022-12-18T13:58:21;23.70;;;14.30;;
18042;SDS011;9146;48.074;11.968;2022-12-18T14:00:48;25.43;;;13.70;;
18042;SDS011;9146;48.074;11.968;2022-12-18T14:03:16;22.47;;;12.97;;
18042;SDS011;9146;48.074;11.968;2022-12-18T14:05:45;22.03;;;12.50;;
18042;SDS011;9146;48.074;11.968;2022-12-18T14:08:19;24.57;;;13.13;;
18042;SDS011;9146;48.074;11.968;2022-12-18T14:10:47;23.87;;;12.20;;
18042;SDS011;9146;48.074;11.968;2022-12-18T14:13:17;26.37;;;12.47;;
18042;SDS011;9146;48.074;11.968;2022-12-18T14:15:49;27.93;;;13.00;;
18042;SDS011;9146;48.074;11.968;2022-12-18T14:18:19;26.00;;;12.50;;
18042;SDS011;9146;48.074;11.968;2022-12-18T14:20:49;22.30;;;11.77;;
18042;SDS011;9146;48.074;11.968;2022-12-18T14:26:19;25.63;;;14.03;;
18042;SDS011;9146;48.074;11.968;2022-12-18T14:28:48;27.63;;;13.70;;
18042;SDS011;9146;48.074;11.968;2022-12-18T14:31:18;24.27;;;13.53;;
18042;SDS011;9146;48.074;11.968;2022-12-18T14:33:46;25.50;;;13.47;;
18042;SDS011;9146;48.074;11.968;2022-12-18T14:36:15;24.47;;;12.30;;
18042;SDS011;9146;48.074;11.968;2022-12-18T14:38:47;22.13;;;13.30;;
18042;SDS011;9146;48.074;11.968;2022-12-18T14:41:15;26.93;;;14.10;;
18042;SDS011;9146;48.074;11.968;2022-12-18T14:43:44;28.33;;;14.00;;
18042;SDS011;9146;48.074;11.968;2022-12-18T14:46:25;21.50;;;12.70;;
18042;SDS011;9146;48.074;11.968;2022-12-18T14:48:55;23.50;;;14.30;;
18042;SDS011;9146;48.074;11.968;2022-12-18T14:51:24;27.00;;;14.47;;
18042;SDS011;9146;48.074;11.968;2022-12-18T14:53:54;25.10;;;13.47;;
18042;SDS011;9146;48.074;11.968;2022-12-18T14:56:23;27.63;;;13.43;;
18042;SDS011;9146;48.074;11.968;2022-12-18T14:58:53;24.57;;;14.17;;
18042;SDS011;9146;48.074;11.968;2022-12-18T15:01:23;29.30;;;15.30;;
18042;SDS011;9146;48.074;11.968;2022-12-18T15:03:52;25.70;;;14.30;;
18042;SDS011;9146;48.074;11.968;2022-12-18T15:06:24;22.10;;;12.77;;